createdAt,value
2017-12-27T00:00:08.511Z,0.6
2017-12-27T00:01:12.624Z,0.6
2017-12-27T00:02:20.494Z,0.7
2017-12-27T00:03:24.497Z,0.7
2017-12-27T00:04:27.961Z,0.7
2017-12-27T00:05:31.866Z,0.7
2017-12-27T00:06:35.348Z,0.6
2017-12-27T00:07:38.776Z,0.6
2017-12-27T00:08:42.132Z,0.6
2017-12-27T00:09:45.497Z,0.5
2017-12-27T00:10:49.145Z,0.5
2017-12-27T00:11:52.625Z,0.4
2017-12-27T00:13:00.109Z,0.4
2017-12-27T00:14:04.421Z,0.4
2017-12-27T00:15:07.899Z,0.4
2017-12-27T00:16:11.714Z,0.5
2017-12-27T00:17:16.354Z,0.5
2017-12-27T00:18:19.728Z,0.4
2017-12-27T00:19:23.131Z,0.5
2017-12-27T00:20:26.408Z,0.4
2017-12-27T00:21:29.907Z,0.4
2017-12-27T00:22:34.099Z,0.4
2017-12-27T00:23:42.339Z,0.4
2017-12-27T00:24:46.186Z,0.4
2017-12-27T00:25:50.766Z,0.4
2017-12-27T00:26:54.792Z,0.3
2017-12-27T00:27:58.141Z,0.3
2017-12-27T00:29:01.565Z,0.3
2017-12-27T00:30:04.920Z,0.3
2017-12-27T00:31:09.351Z,0.4
2017-12-27T00:32:14.001Z,0.4
2017-12-27T00:33:17.193Z,0.4
2017-12-27T00:34:24.256Z,0.5
2017-12-27T00:35:27.801Z,0.4
2017-12-27T00:36:31.517Z,0.4
2017-12-27T00:37:34.998Z,0.4
2017-12-27T00:38:38.376Z,0.3
2017-12-27T00:39:41.824Z,0.3
2017-12-27T00:40:45.369Z,0.3
2017-12-27T00:41:49.520Z,0.3
2017-12-27T00:42:52.905Z,0.3
2017-12-27T00:43:56.307Z,0.3
2017-12-27T00:45:03.371Z,0.4
2017-12-27T00:46:06.796Z,0.3
2017-12-27T00:47:10.207Z,0.3
2017-12-27T00:48:13.648Z,0.3
2017-12-27T00:49:17.007Z,0.3
2017-12-27T00:50:20.445Z,0.4
2017-12-27T00:51:24.022Z,0.4
2017-12-27T00:52:27.284Z,0.4
2017-12-27T00:53:30.704Z,0.4
2017-12-27T00:54:34.723Z,0.3
2017-12-27T00:55:42.411Z,0.4
2017-12-27T00:56:45.803Z,0.3
2017-12-27T00:57:49.750Z,0.3
2017-12-27T00:58:53.025Z,0.4
2017-12-27T00:59:56.472Z,0.4
2017-12-27T01:00:59.932Z,0.4
2017-12-27T01:02:03.359Z,0.3
2017-12-27T01:03:06.555Z,0.3
2017-12-27T01:04:09.936Z,0.3
2017-12-27T01:05:13.248Z,0.4
2017-12-27T01:06:20.121Z,0.4
2017-12-27T01:07:23.706Z,0.4
2017-12-27T01:08:27.306Z,0.3
2017-12-27T01:09:30.725Z,0.4
2017-12-27T01:10:34.193Z,0.4
2017-12-27T01:11:37.534Z,0.4
2017-12-27T01:12:40.873Z,0.4
2017-12-27T01:13:44.193Z,0.3
2017-12-27T01:14:48.158Z,0.3
2017-12-27T01:15:51.495Z,0.3
2017-12-27T01:16:58.447Z,0.3
2017-12-27T01:18:02.031Z,0.2
2017-12-27T01:19:05.450Z,0.2
2017-12-27T01:20:08.849Z,0.2
2017-12-27T01:21:12.262Z,0.2
2017-12-27T01:22:15.679Z,0.3
2017-12-27T01:23:19.051Z,0.2
2017-12-27T01:24:22.380Z,0.2
2017-12-27T01:25:25.800Z,0.1
2017-12-27T01:26:29.161Z,0.1
2017-12-27T01:27:36.150Z,0.1
2017-12-27T01:28:39.671Z,0.1
2017-12-27T01:29:43.055Z,0.1
2017-12-27T01:30:46.458Z,0.1
2017-12-27T01:31:49.880Z,0.2
2017-12-27T01:32:53.177Z,0.2
2017-12-27T01:33:56.506Z,0.1
2017-12-27T01:35:00.604Z,0.2
2017-12-27T01:36:03.867Z,0.2
2017-12-27T01:37:07.278Z,0.2
2017-12-27T01:38:14.153Z,0.2
2017-12-27T01:39:18.270Z,0.2
2017-12-27T01:40:21.702Z,0.2
2017-12-27T01:41:25.189Z,0.3
2017-12-27T01:42:28.591Z,0.3
2017-12-27T01:43:31.943Z,0.3
2017-12-27T01:44:35.523Z,0.2
2017-12-27T01:45:38.808Z,0.2
2017-12-27T01:46:42.363Z,0.2
2017-12-27T01:47:45.912Z,0.2
2017-12-27T01:48:53.327Z,0.2
2017-12-27T01:49:56.758Z,0.2
2017-12-27T01:51:00.161Z,0.2
2017-12-27T01:52:03.552Z,0.2
2017-12-27T01:53:06.918Z,0.2
2017-12-27T01:54:10.952Z,0.2
2017-12-27T01:55:14.462Z,0.2
2017-12-27T01:56:18.129Z,0.2
2017-12-27T01:57:21.490Z,0.2
2017-12-27T01:58:24.923Z,0.2
2017-12-27T01:59:31.772Z,0.2
2017-12-27T02:00:35.069Z,0.2
2017-12-27T02:01:38.409Z,0.3
2017-12-27T02:02:41.783Z,0.3
2017-12-27T02:03:45.014Z,0.3
2017-12-27T02:04:48.422Z,0.4
2017-12-27T02:05:51.803Z,0.4
2017-12-27T02:06:55.199Z,0.4
2017-12-27T02:07:58.548Z,0.4
2017-12-27T02:09:02.102Z,0.4
2017-12-27T02:10:09.574Z,0.3
2017-12-27T02:11:12.987Z,0.4
2017-12-27T02:12:16.323Z,0.4
2017-12-27T02:13:20.292Z,0.3
2017-12-27T02:14:23.830Z,0.3
2017-12-27T02:15:27.138Z,0.4
2017-12-27T02:16:30.361Z,0.4
2017-12-27T02:17:33.792Z,0.3
2017-12-27T02:18:37.298Z,0.3
2017-12-27T02:19:40.811Z,0.3
2017-12-27T02:20:47.809Z,0.3
2017-12-27T02:21:51.199Z,0.3
2017-12-27T02:22:54.684Z,0.3
2017-12-27T02:23:57.866Z,0.3
2017-12-27T02:25:01.235Z,0.3
2017-12-27T02:26:04.544Z,0.2
2017-12-27T02:27:07.907Z,0.2
2017-12-27T02:28:12.219Z,0.3
2017-12-27T02:29:15.527Z,0.3
2017-12-27T02:30:18.930Z,0.3
2017-12-27T02:31:25.698Z,0.3
2017-12-27T02:32:29.108Z,0.3
2017-12-27T02:33:32.445Z,0.2
2017-12-27T02:34:35.866Z,0.2
2017-12-27T02:35:39.278Z,0.1
2017-12-27T02:36:42.675Z,0.1
2017-12-27T02:37:46.036Z,0.1
2017-12-27T02:38:49.440Z,0
2017-12-27T02:39:52.729Z,0
2017-12-27T02:40:56.108Z,0
2017-12-27T02:42:03.632Z,-0.1
2017-12-27T02:43:06.963Z,-0.1
2017-12-27T02:44:10.185Z,0
2017-12-27T02:45:13.417Z,0
2017-12-27T02:46:16.837Z,0
2017-12-27T02:47:20.171Z,0
2017-12-27T02:48:23.477Z,-0.1
2017-12-27T02:49:28.764Z,-0.1
2017-12-27T02:50:32.532Z,-0.1
2017-12-27T02:51:36.064Z,-0.1
2017-12-27T02:52:42.151Z,-0.1
2017-12-27T02:53:45.502Z,-0.1
2017-12-27T02:54:48.910Z,-0.1
2017-12-27T02:55:52.433Z,-0.1
2017-12-27T02:56:56.495Z,-0.1
2017-12-27T02:57:59.585Z,-0.1
2017-12-27T02:59:02.842Z,0
2017-12-27T03:00:07.788Z,0
2017-12-27T03:01:12.078Z,-0.1
2017-12-27T03:02:15.388Z,-0.1
2017-12-27T03:03:22.220Z,-0.1
2017-12-27T03:04:25.549Z,-0.1
2017-12-27T03:05:28.801Z,-0.1
2017-12-27T03:06:32.937Z,-0.2
2017-12-27T03:07:36.413Z,-0.2
2017-12-27T03:08:39.813Z,-0.2
2017-12-27T03:09:43.144Z,-0.2
2017-12-27T03:10:47.633Z,-0.2
2017-12-27T03:11:50.987Z,-0.1
2017-12-27T03:12:54.373Z,-0.2
2017-12-27T03:14:02.645Z,-0.2
2017-12-27T03:15:06.065Z,-0.3
2017-12-27T03:16:10.729Z,-0.2
2017-12-27T03:17:14.081Z,-0.2
2017-12-27T03:18:17.397Z,-0.2
2017-12-27T03:19:20.789Z,-0.2
2017-12-27T03:20:24.177Z,-0.2
2017-12-27T03:21:27.618Z,-0.2
2017-12-27T03:22:30.986Z,-0.2
2017-12-27T03:23:34.396Z,-0.2
2017-12-27T03:24:41.455Z,-0.2
2017-12-27T03:25:45.906Z,-0.2
2017-12-27T03:26:49.358Z,-0.2
2017-12-27T03:27:52.644Z,-0.1
2017-12-27T03:28:56.022Z,-0.2
2017-12-27T03:29:59.392Z,-0.2
2017-12-27T03:31:02.822Z,-0.3
2017-12-27T03:32:06.166Z,-0.3
2017-12-27T03:33:09.493Z,-0.3
2017-12-27T03:34:12.919Z,-0.3
2017-12-27T03:35:19.760Z,-0.3
2017-12-27T03:36:23.063Z,-0.4
2017-12-27T03:37:26.426Z,-0.4
2017-12-27T03:38:29.820Z,-0.3
2017-12-27T03:39:33.194Z,-0.3
2017-12-27T03:40:37.332Z,-0.4
2017-12-27T03:41:40.588Z,-0.5
2017-12-27T03:42:44.653Z,-0.4
2017-12-27T03:43:48.040Z,-0.4
2017-12-27T03:44:51.416Z,-0.5
2017-12-27T03:45:58.165Z,-0.4
2017-12-27T03:47:01.625Z,-0.4
2017-12-27T03:48:05.538Z,-0.4
2017-12-27T03:49:08.802Z,-0.4
2017-12-27T03:50:12.206Z,-0.4
2017-12-27T03:51:15.676Z,-0.4
2017-12-27T03:52:19.266Z,-0.4
2017-12-27T03:53:23.015Z,-0.4
2017-12-27T03:54:26.313Z,-0.4
2017-12-27T03:55:29.597Z,-0.5
2017-12-27T03:56:36.383Z,-0.5
2017-12-27T03:57:39.785Z,-0.5
2017-12-27T03:58:43.155Z,-0.5
2017-12-27T03:59:46.496Z,-0.4
2017-12-27T04:00:49.886Z,-0.4
2017-12-27T04:01:53.324Z,-0.4
2017-12-27T04:02:56.724Z,-0.4
2017-12-27T04:04:00.108Z,-0.4
2017-12-27T04:05:03.598Z,-0.5
2017-12-27T04:06:07.032Z,-0.5
2017-12-27T04:07:13.938Z,-0.5
2017-12-27T04:08:17.393Z,-0.6
2017-12-27T04:09:20.889Z,-0.5
2017-12-27T04:10:24.235Z,-0.5
2017-12-27T04:11:27.663Z,-0.5
2017-12-27T04:12:31.090Z,-0.5
2017-12-27T04:13:34.426Z,-0.4
2017-12-27T04:14:37.896Z,-0.4
2017-12-27T04:15:41.304Z,-0.4
2017-12-27T04:16:44.797Z,-0.4
2017-12-27T04:17:51.736Z,-0.4
2017-12-27T04:18:55.151Z,-0.4
2017-12-27T04:19:58.846Z,-0.3
2017-12-27T04:21:02.216Z,-0.5
2017-12-27T04:22:06.116Z,-0.5
2017-12-27T04:23:09.493Z,-0.4
2017-12-27T04:24:12.968Z,-0.5
2017-12-27T04:25:16.524Z,-0.4
2017-12-27T04:26:19.868Z,-0.4
2017-12-27T04:27:23.215Z,-0.3
2017-12-27T04:28:30.184Z,-0.4
2017-12-27T04:29:35.069Z,-0.3
2017-12-27T04:30:38.457Z,-0.3
2017-12-27T04:31:41.851Z,-0.3
2017-12-27T04:32:45.268Z,-0.3
2017-12-27T04:33:49.476Z,-0.3
2017-12-27T04:34:52.759Z,-0.3
2017-12-27T04:35:58.524Z,-0.3
2017-12-27T04:37:01.833Z,-0.3
2017-12-27T04:38:06.353Z,-0.3
2017-12-27T04:39:13.311Z,-0.3
2017-12-27T04:40:16.803Z,-0.3
2017-12-27T04:41:20.217Z,-0.3
2017-12-27T04:42:23.572Z,-0.3
2017-12-27T04:43:27.602Z,-0.3
2017-12-27T04:44:31.051Z,-0.3
2017-12-27T04:45:34.457Z,-0.4
2017-12-27T04:46:38.698Z,-0.4
2017-12-27T04:47:42.005Z,-0.4
2017-12-27T04:48:45.345Z,-0.4
2017-12-27T04:49:52.175Z,-0.4
2017-12-27T04:50:55.613Z,-0.4
2017-12-27T04:51:59.070Z,-0.4
2017-12-27T04:53:02.963Z,-0.4
2017-12-27T04:54:06.314Z,-0.4
2017-12-27T04:55:09.708Z,-0.4
2017-12-27T04:56:13.283Z,-0.4
2017-12-27T04:57:16.802Z,-0.4
2017-12-27T04:58:20.257Z,-0.4
2017-12-27T04:59:23.766Z,-0.5
2017-12-27T05:00:30.685Z,-0.5
2017-12-27T05:01:33.915Z,-0.5
2017-12-27T05:02:37.406Z,-0.5
2017-12-27T05:03:40.778Z,-0.5
2017-12-27T05:04:44.220Z,-0.4
2017-12-27T05:05:47.500Z,-0.4
2017-12-27T05:06:50.795Z,-0.5
2017-12-27T05:07:54.518Z,-0.5
2017-12-27T05:08:57.968Z,-0.5
2017-12-27T05:10:01.355Z,-0.5
2017-12-27T05:11:08.352Z,-0.4
2017-12-27T05:12:11.702Z,-0.4
2017-12-27T05:13:15.126Z,-0.4
2017-12-27T05:14:18.526Z,-0.4
2017-12-27T05:15:22.028Z,-0.5
2017-12-27T05:16:25.533Z,-0.5
2017-12-27T05:17:28.922Z,-0.5
2017-12-27T05:18:32.519Z,-0.5
2017-12-27T05:19:35.892Z,-0.4
2017-12-27T05:20:39.346Z,-0.5
2017-12-27T05:21:46.152Z,-0.5
2017-12-27T05:22:51.083Z,-0.5
2017-12-27T05:23:54.660Z,-0.4
2017-12-27T05:24:58.105Z,-0.4
2017-12-27T05:26:01.436Z,-0.4
2017-12-27T05:27:04.811Z,-0.4
2017-12-27T05:28:08.143Z,-0.4
2017-12-27T05:29:11.632Z,-0.4
2017-12-27T05:30:15.013Z,-0.3
2017-12-27T05:31:18.506Z,-0.4
2017-12-27T05:32:25.969Z,-0.4
2017-12-27T05:33:29.429Z,-0.3
2017-12-27T05:34:33.670Z,-0.3
2017-12-27T05:35:37.750Z,-0.3
2017-12-27T05:36:41.091Z,-0.2
2017-12-27T05:37:44.368Z,-0.2
2017-12-27T05:38:47.782Z,-0.2
2017-12-27T05:39:51.185Z,-0.2
2017-12-27T05:40:55.552Z,-0.2
2017-12-27T05:41:59.498Z,-0.2
2017-12-27T05:43:07.517Z,-0.2
2017-12-27T05:44:10.881Z,-0.2
2017-12-27T05:45:14.530Z,-0.2
2017-12-27T05:46:17.959Z,-0.3
2017-12-27T05:47:22.167Z,-0.3
2017-12-27T05:48:25.544Z,-0.2
2017-12-27T05:49:29.606Z,-0.3
2017-12-27T05:50:34.071Z,-0.2
2017-12-27T05:51:37.321Z,-0.3
2017-12-27T05:52:41.346Z,-0.3
2017-12-27T05:53:48.402Z,-0.3
2017-12-27T05:54:51.631Z,-0.2
2017-12-27T05:55:55.092Z,-0.2
2017-12-27T05:56:58.446Z,-0.2
2017-12-27T05:58:02.628Z,-0.2
2017-12-27T05:59:06.939Z,-0.1
2017-12-27T06:00:10.824Z,-0.1
2017-12-27T06:01:14.740Z,-0.1
2017-12-27T06:02:18.124Z,-0.1
2017-12-27T06:03:22.206Z,-0.1
2017-12-27T06:04:32.969Z,-0.1
2017-12-27T06:05:38.303Z,-0.1
2017-12-27T06:06:42.242Z,-0.1
2017-12-27T06:07:46.254Z,-0.1
2017-12-27T06:08:49.603Z,-0.1
2017-12-27T06:09:54.316Z,-0.1
2017-12-27T06:10:58.089Z,-0.1
2017-12-27T06:12:01.953Z,-0.1
2017-12-27T06:13:05.494Z,-0.1
2017-12-27T06:14:10.117Z,-0.1
2017-12-27T06:15:18.437Z,0
2017-12-27T06:16:22.821Z,0
2017-12-27T06:17:26.253Z,0
2017-12-27T06:18:29.614Z,0
2017-12-27T06:19:34.614Z,-0.1
2017-12-27T06:20:38.695Z,-0.1
2017-12-27T06:21:42.948Z,-0.1
2017-12-27T06:22:46.369Z,0
2017-12-27T06:23:50.322Z,0
2017-12-27T06:24:54.264Z,0
2017-12-27T06:26:01.300Z,0
2017-12-27T06:27:05.791Z,0
2017-12-27T06:28:09.114Z,0.1
2017-12-27T06:29:13.875Z,0.1
2017-12-27T06:30:17.869Z,0
2017-12-27T06:31:21.732Z,0.1
2017-12-27T06:32:25.160Z,0.1
2017-12-27T06:33:30.274Z,0
2017-12-27T06:34:34.386Z,0
2017-12-27T06:35:39.376Z,0
2017-12-27T06:36:48.437Z,0
2017-12-27T06:37:52.567Z,0
2017-12-27T06:38:56.138Z,0
2017-12-27T06:40:00.240Z,0
2017-12-27T06:41:05.983Z,0
2017-12-27T06:42:09.558Z,0
2017-12-27T06:43:13.908Z,0
2017-12-27T06:44:18.551Z,0
2017-12-27T06:45:23.986Z,0.1
2017-12-27T06:46:27.972Z,0.1
2017-12-27T06:47:36.901Z,0
2017-12-27T06:48:40.204Z,0.1
2017-12-27T06:49:44.222Z,0.1
2017-12-27T06:50:47.638Z,0.1
2017-12-27T06:51:52.125Z,0.1
2017-12-27T06:52:55.454Z,0.1
2017-12-27T06:53:59.005Z,0.1
2017-12-27T06:55:03.137Z,0.1
2017-12-27T06:56:06.594Z,0.2
2017-12-27T06:57:10.054Z,0.2
2017-12-27T06:58:17.362Z,0.2
2017-12-27T06:59:21.552Z,0.3
2017-12-27T07:00:25.625Z,0.3
2017-12-27T07:01:29.199Z,0.3
2017-12-27T07:02:32.267Z,0.3
2017-12-27T07:03:36.331Z,0.3
2017-12-27T07:04:42.246Z,0.4
2017-12-27T07:05:46.246Z,0.4
2017-12-27T07:06:50.125Z,0.4
2017-12-27T07:07:54.161Z,0.4
2017-12-27T07:09:01.003Z,0.4
2017-12-27T07:10:04.420Z,0.4
2017-12-27T07:11:07.642Z,0.4
2017-12-27T07:12:11.080Z,0.4
2017-12-27T07:13:14.207Z,0.4
2017-12-27T07:14:18.114Z,0.4
2017-12-27T07:15:21.741Z,0.5
2017-12-27T07:16:27.171Z,0.5
2017-12-27T07:17:31.814Z,0.4
2017-12-27T07:18:37.710Z,0.3
2017-12-27T07:19:45.657Z,0.4
2017-12-27T07:20:54.405Z,0.4
2017-12-27T07:21:58.258Z,0.5
2017-12-27T07:23:02.387Z,0.5
2017-12-27T07:24:05.520Z,0.5
2017-12-27T07:25:09.723Z,0.6
2017-12-27T07:26:13.827Z,0.6
2017-12-27T07:27:18.090Z,0.6
2017-12-27T07:28:22.306Z,0.6
2017-12-27T07:29:26.407Z,0.6
2017-12-27T07:30:37.237Z,0.6
2017-12-27T07:31:41.366Z,0.6
2017-12-27T07:32:45.489Z,0.6
2017-12-27T07:33:48.748Z,0.7
2017-12-27T07:34:52.913Z,0.7
2017-12-27T07:35:57.133Z,0.7
2017-12-27T07:37:01.806Z,0.7
2017-12-27T07:38:06.234Z,0.7
2017-12-27T07:39:10.749Z,0.8
2017-12-27T07:40:14.297Z,0.8
2017-12-27T07:41:22.218Z,0.7
2017-12-27T07:42:25.530Z,0.8
2017-12-27T07:43:28.964Z,0.8
2017-12-27T07:44:32.259Z,0.8
2017-12-27T07:45:35.555Z,0.8
2017-12-27T07:46:38.993Z,0.8
2017-12-27T07:47:42.469Z,0.8
2017-12-27T07:48:45.981Z,0.8
2017-12-27T07:49:51.086Z,0.9
2017-12-27T07:50:54.476Z,0.9
2017-12-27T07:52:01.261Z,0.9
2017-12-27T07:53:04.442Z,0.9
2017-12-27T07:54:08.795Z,0.9
2017-12-27T07:55:12.115Z,1
2017-12-27T07:56:15.412Z,1
2017-12-27T07:57:18.662Z,1
2017-12-27T07:58:22.008Z,1
2017-12-27T07:59:25.646Z,1
2017-12-27T08:00:29.078Z,1
2017-12-27T08:01:32.443Z,1
2017-12-27T08:02:39.483Z,1
2017-12-27T08:03:43.586Z,1
2017-12-27T08:04:46.870Z,1
2017-12-27T08:05:50.315Z,1
2017-12-27T08:06:53.724Z,1
2017-12-27T08:07:57.801Z,1
2017-12-27T08:09:01.501Z,1.1
2017-12-27T08:10:05.585Z,1
2017-12-27T08:11:09.580Z,1.1
2017-12-27T08:12:13.048Z,1.1
2017-12-27T08:13:20.044Z,1.1
2017-12-27T08:14:23.450Z,1.1
2017-12-27T08:15:26.945Z,1.1
2017-12-27T08:16:30.303Z,1.2
2017-12-27T08:17:33.806Z,1.2
2017-12-27T08:18:37.142Z,1.3
2017-12-27T08:19:40.690Z,1.4
2017-12-27T08:20:44.221Z,1.4
2017-12-27T08:21:47.676Z,1.4
2017-12-27T08:22:51.067Z,1.5
2017-12-27T08:23:57.986Z,1.5
2017-12-27T08:25:02.657Z,1.5
2017-12-27T08:26:06.043Z,1.5
2017-12-27T08:27:09.308Z,1.5
2017-12-27T08:28:12.804Z,1.5
2017-12-27T08:29:16.107Z,1.5
2017-12-27T08:30:19.586Z,1.5
2017-12-27T08:31:22.855Z,1.5
2017-12-27T08:32:26.185Z,1.5
2017-12-27T08:33:29.702Z,1.5
2017-12-27T08:34:36.721Z,1.6
2017-12-27T08:35:41.009Z,1.5
2017-12-27T08:36:44.458Z,1.6
2017-12-27T08:37:48.588Z,1.6
2017-12-27T08:38:52.114Z,1.6
2017-12-27T08:39:55.587Z,1.7
2017-12-27T08:40:59.277Z,1.7
2017-12-27T08:42:02.827Z,1.7
2017-12-27T08:43:06.298Z,1.7
2017-12-27T08:44:09.679Z,1.7
2017-12-27T08:45:16.707Z,1.8
2017-12-27T08:46:20.179Z,1.8
2017-12-27T08:47:23.687Z,1.8
2017-12-27T08:48:27.038Z,1.8
2017-12-27T08:49:31.186Z,1.8
2017-12-27T08:50:35.253Z,1.8
2017-12-27T08:51:38.730Z,1.8
2017-12-27T08:52:42.221Z,1.9
2017-12-27T08:53:45.789Z,1.9
2017-12-27T08:54:49.259Z,1.9
2017-12-27T08:55:56.305Z,2
2017-12-27T08:56:59.721Z,2
2017-12-27T08:58:03.167Z,2
2017-12-27T08:59:06.612Z,2.1
2017-12-27T09:00:09.887Z,2.1
2017-12-27T09:01:13.281Z,2.1
2017-12-27T09:02:16.763Z,2.1
2017-12-27T09:03:20.128Z,2.1
2017-12-27T09:04:23.817Z,2.1
2017-12-27T09:05:27.380Z,2.2
2017-12-27T09:06:34.609Z,2.2
2017-12-27T09:07:38.713Z,2.2
2017-12-27T09:08:42.176Z,2.2
2017-12-27T09:09:45.717Z,2.3
2017-12-27T09:10:49.243Z,2.3
2017-12-27T09:11:52.601Z,2.3
2017-12-27T09:12:56.650Z,2.3
2017-12-27T09:14:00.057Z,2.4
2017-12-27T09:15:03.584Z,2.4
2017-12-27T09:16:07.055Z,2.5
2017-12-27T09:17:14.121Z,2.5
2017-12-27T09:18:17.502Z,2.6
2017-12-27T09:19:20.791Z,2.6
2017-12-27T09:20:24.218Z,2.6
2017-12-27T09:21:28.518Z,2.7
2017-12-27T09:22:31.917Z,2.8
2017-12-27T09:23:36.222Z,2.9
2017-12-27T09:24:39.557Z,2.9
2017-12-27T09:25:43.118Z,2.9
2017-12-27T09:26:46.457Z,2.9
2017-12-27T09:27:53.395Z,3
2017-12-27T09:28:56.855Z,3.1
2017-12-27T09:30:00.369Z,3
2017-12-27T09:31:03.852Z,3.1
2017-12-27T09:32:07.226Z,3
2017-12-27T09:33:10.668Z,3.1
2017-12-27T09:34:14.125Z,3
2017-12-27T09:35:17.650Z,3
2017-12-27T09:36:22.926Z,3.1
2017-12-27T09:37:26.939Z,3.1
2017-12-27T09:38:34.112Z,3.1
2017-12-27T09:39:37.593Z,3.1
2017-12-27T09:40:41.108Z,3.1
2017-12-27T09:41:44.759Z,3.2
2017-12-27T09:42:48.436Z,3.2
2017-12-27T09:43:51.939Z,3.2
2017-12-27T09:44:55.942Z,3.2
2017-12-27T09:45:59.223Z,3.2
2017-12-27T09:47:02.609Z,3.2
2017-12-27T09:48:06.023Z,3.2
2017-12-27T09:49:12.915Z,3.2
2017-12-27T09:50:16.498Z,3.2
2017-12-27T09:51:20.124Z,3.2
2017-12-27T09:52:23.480Z,3.3
2017-12-27T09:53:27.675Z,3.4
2017-12-27T09:54:31.101Z,3.4
2017-12-27T09:55:34.601Z,3.5
2017-12-27T09:56:37.893Z,3.5
2017-12-27T09:57:41.473Z,3.5
2017-12-27T09:58:45.685Z,3.6
2017-12-27T09:59:53.273Z,3.6
2017-12-27T10:00:57.768Z,3.7
2017-12-27T10:02:01.739Z,3.7
2017-12-27T10:03:08.010Z,3.8
2017-12-27T10:04:18.241Z,3.8
2017-12-27T10:05:25.843Z,3.8
2017-12-27T10:06:32.902Z,3.8
2017-12-27T10:07:37.363Z,3.8
2017-12-27T10:08:43.874Z,3.7
2017-12-27T10:09:47.347Z,3.7
2017-12-27T10:10:54.367Z,3.8
2017-12-27T10:11:57.868Z,3.9
2017-12-27T10:13:01.304Z,3.9
2017-12-27T10:14:04.763Z,3.9
2017-12-27T10:15:08.212Z,3.9
2017-12-27T10:16:12.364Z,4
2017-12-27T10:17:16.977Z,4
2017-12-27T10:18:20.591Z,4
2017-12-27T10:19:24.208Z,4
2017-12-27T10:20:27.574Z,4
2017-12-27T10:21:34.590Z,4.1
2017-12-27T10:22:38.391Z,4.1
2017-12-27T10:23:43.097Z,4.2
2017-12-27T10:24:46.728Z,4.3
2017-12-27T10:25:50.220Z,4.3
2017-12-27T10:26:54.372Z,4.4
2017-12-27T10:27:57.874Z,4.4
2017-12-27T10:29:02.406Z,4.4
2017-12-27T10:30:05.867Z,4.5
2017-12-27T10:31:09.300Z,4.5
2017-12-27T10:32:16.339Z,4.5
2017-12-27T10:33:19.906Z,4.5
2017-12-27T10:34:23.452Z,4.5
2017-12-27T10:35:26.968Z,4.7
2017-12-27T10:36:30.561Z,4.8
2017-12-27T10:37:34.026Z,4.8
2017-12-27T10:38:37.390Z,4.9
2017-12-27T10:39:40.921Z,5.1
2017-12-27T10:40:44.573Z,5.2
2017-12-27T10:41:48.933Z,5.4
2017-12-27T10:42:56.674Z,5.5
2017-12-27T10:44:00.725Z,5.6
2017-12-27T10:45:05.511Z,5.7
2017-12-27T10:46:09.072Z,5.9
2017-12-27T10:47:12.564Z,6
2017-12-27T10:48:16.107Z,6.1
2017-12-27T10:49:19.576Z,6.2
2017-12-27T10:50:24.640Z,6.4
2017-12-27T10:51:28.127Z,6.5
2017-12-27T10:52:31.607Z,6.6
2017-12-27T10:53:40.188Z,6.7
2017-12-27T10:54:43.417Z,6.8
2017-12-27T10:55:46.879Z,6.8
2017-12-27T10:56:50.326Z,6.9
2017-12-27T10:57:54.365Z,7
2017-12-27T10:58:57.859Z,7.1
2017-12-27T11:00:01.387Z,7.1
2017-12-27T11:01:04.792Z,7.3
2017-12-27T11:02:08.965Z,7.4
2017-12-27T11:03:12.936Z,7.5
2017-12-27T11:04:20.899Z,7.6
2017-12-27T11:05:24.456Z,7.6
2017-12-27T11:06:27.978Z,7.7
2017-12-27T11:07:31.384Z,7.7
2017-12-27T11:08:34.932Z,7.8
2017-12-27T11:09:38.650Z,7.8
2017-12-27T11:10:42.972Z,7.8
2017-12-27T11:11:46.590Z,7.8
2017-12-27T11:12:51.979Z,7.9
2017-12-27T11:13:55.645Z,7.9
2017-12-27T11:15:02.748Z,8
2017-12-27T11:16:06.992Z,8
2017-12-27T11:17:11.893Z,8
2017-12-27T11:18:16.151Z,8
2017-12-27T11:19:19.468Z,8
2017-12-27T11:20:22.840Z,8.1
2017-12-27T11:21:27.193Z,8.1
2017-12-27T11:22:31.435Z,8.1
2017-12-27T11:23:34.829Z,8.1
2017-12-27T11:24:38.302Z,8.1
2017-12-27T11:25:45.112Z,8.1
2017-12-27T11:26:48.587Z,8.1
2017-12-27T11:27:52.690Z,7.9
2017-12-27T11:28:56.157Z,7.7
2017-12-27T11:29:59.696Z,7.7
2017-12-27T11:31:04.212Z,7.6
2017-12-27T11:32:08.203Z,7.5
2017-12-27T11:33:11.578Z,7.4
2017-12-27T11:34:15.732Z,7.4
2017-12-27T11:35:20.184Z,7.4
2017-12-27T11:36:27.398Z,7.5
2017-12-27T11:37:30.972Z,7.3
2017-12-27T11:38:34.420Z,7.2
2017-12-27T11:39:37.959Z,7.2
2017-12-27T11:40:41.504Z,7.3
2017-12-27T11:41:46.910Z,7.2
2017-12-27T11:42:51.095Z,7.1
2017-12-27T11:43:55.253Z,7.1
2017-12-27T11:45:01.802Z,7.1
2017-12-27T11:46:05.234Z,7.1
2017-12-27T11:47:12.295Z,7
2017-12-27T11:48:15.761Z,6.9
2017-12-27T11:49:19.309Z,6.8
2017-12-27T11:50:22.647Z,6.6
2017-12-27T11:51:26.131Z,6.5
2017-12-27T11:52:29.510Z,6.5
2017-12-27T11:53:32.907Z,6.2
2017-12-27T11:54:36.468Z,6.1
2017-12-27T11:55:39.923Z,6.2
2017-12-27T11:56:43.310Z,6.1
2017-12-27T11:57:50.399Z,6
2017-12-27T11:58:55.347Z,6
2017-12-27T11:59:58.818Z,6
2017-12-27T12:01:02.289Z,6
2017-12-27T12:02:05.642Z,5.7
2017-12-27T12:03:08.960Z,5.7
2017-12-27T12:04:12.310Z,5.7
2017-12-27T12:05:15.620Z,5.7
2017-12-27T12:06:19.101Z,5.8
2017-12-27T12:07:22.501Z,5.8
2017-12-27T12:08:29.608Z,5.8
2017-12-27T12:09:33.175Z,5.7
2017-12-27T12:10:36.523Z,5.7
2017-12-27T12:11:39.810Z,5.7
2017-12-27T12:12:43.188Z,5.7
2017-12-27T12:13:46.628Z,5.6
2017-12-27T12:14:50.175Z,5.6
2017-12-27T12:15:53.436Z,5.6
2017-12-27T12:16:56.891Z,5.6
2017-12-27T12:18:01.032Z,5.6
2017-12-27T12:19:07.941Z,5.6
2017-12-27T12:20:11.508Z,5.7
2017-12-27T12:21:14.863Z,5.6
2017-12-27T12:22:18.236Z,5.6
2017-12-27T12:23:21.660Z,5.5
2017-12-27T12:24:25.121Z,5.6
2017-12-27T12:25:28.596Z,5.5
2017-12-27T12:26:32.060Z,5.5
2017-12-27T12:27:35.526Z,5.6
2017-12-27T12:28:38.968Z,5.7
2017-12-27T12:29:45.870Z,5.7
2017-12-27T12:30:49.272Z,5.6
2017-12-27T12:31:52.776Z,5.6
2017-12-27T12:32:56.026Z,5.6
2017-12-27T12:33:59.585Z,5.6
2017-12-27T12:35:03.019Z,5.6
2017-12-27T12:36:06.324Z,5.7
2017-12-27T12:37:09.854Z,5.7
2017-12-27T12:38:13.158Z,5.5
2017-12-27T12:39:16.581Z,5.5
2017-12-27T12:40:23.482Z,5.5
2017-12-27T12:41:27.048Z,5.6
2017-12-27T12:42:30.314Z,5.6
2017-12-27T12:43:33.761Z,5.7
2017-12-27T12:44:37.077Z,5.7
2017-12-27T12:45:40.471Z,5.7
2017-12-27T12:46:44.005Z,5.7
2017-12-27T12:47:47.514Z,5.7
2017-12-27T12:48:50.913Z,5.6
2017-12-27T12:49:54.328Z,5.7
2017-12-27T12:51:01.325Z,5.6
2017-12-27T12:52:04.743Z,5.5
2017-12-27T12:53:08.082Z,5.5
2017-12-27T12:54:11.627Z,5.6
2017-12-27T12:55:15.008Z,5.6
2017-12-27T12:56:19.084Z,5.7
2017-12-27T12:57:22.422Z,5.7
2017-12-27T12:58:25.771Z,5.7
2017-12-27T12:59:29.641Z,5.6
2017-12-27T13:00:33.149Z,5.4
2017-12-27T13:01:43.323Z,5.4
2017-12-27T13:02:48.663Z,5.4
2017-12-27T13:03:53.290Z,5.4
2017-12-27T13:04:59.454Z,5.4
2017-12-27T13:06:05.263Z,5.4
2017-12-27T13:07:08.767Z,5.4
2017-12-27T13:08:13.325Z,5.3
2017-12-27T13:09:19.515Z,5.2
2017-12-27T13:10:23.533Z,5.3
2017-12-27T13:11:27.076Z,5.4
2017-12-27T13:12:34.318Z,5.4
2017-12-27T13:13:37.797Z,5.3
2017-12-27T13:14:41.227Z,5.3
2017-12-27T13:15:45.349Z,5.3
2017-12-27T13:16:48.969Z,5.4
2017-12-27T13:17:52.585Z,5.5
2017-12-27T13:18:56.077Z,5.5
2017-12-27T13:19:59.457Z,5.5
2017-12-27T13:21:02.745Z,5.5
2017-12-27T13:22:06.204Z,5.5
2017-12-27T13:23:13.350Z,5.5
2017-12-27T13:24:17.080Z,5.5
2017-12-27T13:25:20.604Z,5.5
2017-12-27T13:26:24.189Z,5.5
2017-12-27T13:27:27.539Z,5.6
2017-12-27T13:28:30.994Z,5.6
2017-12-27T13:29:34.601Z,5.6
2017-12-27T13:30:38.137Z,5.6
2017-12-27T13:31:42.150Z,5.6
2017-12-27T13:32:45.641Z,5.6
2017-12-27T13:33:53.536Z,5.6
2017-12-27T13:34:57.054Z,5.6
2017-12-27T13:36:00.485Z,5.6
2017-12-27T13:37:04.505Z,5.6
2017-12-27T13:38:09.037Z,5.5
2017-12-27T13:39:13.474Z,5.6
2017-12-27T13:40:18.694Z,5.5
2017-12-27T13:41:22.176Z,5.6
2017-12-27T13:42:26.377Z,5.6
2017-12-27T13:43:29.892Z,5.6
2017-12-27T13:44:37.043Z,5.6
2017-12-27T13:45:41.505Z,5.7
2017-12-27T13:46:45.023Z,5.6
2017-12-27T13:47:48.572Z,5.6
2017-12-27T13:48:51.989Z,5.7
2017-12-27T13:49:55.556Z,5.6
2017-12-27T13:51:00.071Z,5.6
2017-12-27T13:52:03.621Z,5.6
2017-12-27T13:53:07.744Z,5.6
2017-12-27T13:54:11.854Z,5.6
2017-12-27T13:55:20.043Z,5.6
2017-12-27T13:56:24.558Z,5.6
2017-12-27T13:57:28.153Z,5.6
2017-12-27T13:58:31.690Z,5.6
2017-12-27T13:59:35.137Z,5.6
2017-12-27T14:00:38.798Z,5.6
2017-12-27T14:01:42.305Z,5.6
2017-12-27T14:02:45.977Z,5.6
2017-12-27T14:03:49.457Z,5.6
2017-12-27T14:04:53.141Z,5.5
2017-12-27T14:06:00.837Z,5.5
2017-12-27T14:07:04.829Z,5.4
2017-12-27T14:08:09.069Z,5.4
2017-12-27T14:09:12.577Z,5.4
2017-12-27T14:10:15.935Z,5.5
2017-12-27T14:11:19.328Z,5.4
2017-12-27T14:12:23.399Z,5.5
2017-12-27T14:13:26.825Z,5.5
2017-12-27T14:14:30.316Z,5.5
2017-12-27T14:15:34.463Z,5.4
2017-12-27T14:16:43.158Z,5.4
2017-12-27T14:17:47.533Z,5.4
2017-12-27T14:18:51.143Z,5.5
2017-12-27T14:19:54.758Z,5.5
2017-12-27T14:20:58.349Z,5.5
2017-12-27T14:22:01.729Z,5.5
2017-12-27T14:23:05.379Z,5.5
2017-12-27T14:24:08.870Z,5.5
2017-12-27T14:25:12.244Z,5.4
2017-12-27T14:26:15.766Z,5.4
2017-12-27T14:27:23.284Z,5.4
2017-12-27T14:28:26.844Z,5.4
2017-12-27T14:29:30.145Z,5.3
2017-12-27T14:30:35.440Z,5.4
2017-12-27T14:31:39.573Z,5.4
2017-12-27T14:32:43.509Z,5.3
2017-12-27T14:33:47.896Z,5.3
2017-12-27T14:34:51.411Z,5.3
2017-12-27T14:35:55.504Z,5.2
2017-12-27T14:37:00.272Z,5.2
2017-12-27T14:38:08.181Z,5.2
2017-12-27T14:39:11.894Z,5.1
2017-12-27T14:40:17.456Z,5.1